Time;durP1;ratioP1;P1;durP2;ratioP2;P2;SDS_P1;SDS_P2;PMS_P1;PMS_P2;Temp;Humidity;BMP_temperature;BMP_pressure;BME280_temperature;BME280_humidity;BME280_pressure;Samples;Min_cycle;Max_cycle;Signal;HPM_P1;HPM_P2
2022/09/19 00:01:17;;;;;;;12.80;4.07;;;;;;;7.98;100.00;98717.16;4177562;28;20241;-71
2022/09/19 00:03:46;;;;;;;11.33;3.80;;;;;;;7.94;100.00;98726.47;4183385;28;20233;-70
2022/09/19 00:06:14;;;;;;;10.93;4.00;;;;;;;7.95;100.00;98726.25;4190302;28;20261;-69
2022/09/19 00:08:43;;;;;;;15.47;4.27;;;;;;;7.85;100.00;98717.69;4183895;28;20239;-71
2022/09/19 00:11:11;;;;;;;13.63;4.53;;;;;;;7.80;100.00;98726.16;4191841;28;21665;-69
2022/09/19 00:13:45;;;;;;;10.50;3.97;;;;;;;7.81;100.00;98719.03;4181679;28;20529;-68
2022/09/19 00:16:12;;;;;;;10.77;3.30;;;;;;;7.80;100.00;98720.84;4184253;28;20318;-71
2022/09/19 00:18:39;;;;;;;12.53;3.60;;;;;;;7.74;100.00;98715.41;4185240;28;20530;-72
2022/09/19 00:21:05;;;;;;;15.67;3.60;;;;;;;7.67;100.00;98720.53;4184286;28;20285;-70
2022/09/19 00:26:17;;;;;;;12.27;3.90;;;;;;;7.63;100.00;98723.69;4167898;28;20272;-70
2022/09/19 00:28:46;;;;;;;12.43;3.83;;;;;;;7.59;100.00;98717.94;4179552;28;20233;-71
2022/09/19 00:31:18;;;;;;;12.23;3.53;;;;;;;7.56;100.00;98726.19;4156485;28;22618;-69
2022/09/19 00:33:46;;;;;;;9.37;3.67;;;;;;;7.49;100.00;98723.41;4159326;28;20230;-71
2022/09/19 00:36:14;;;;;;;10.27;4.00;;;;;;;7.48;100.00;98708.50;4188294;28;20363;-71
2022/09/19 00:38:40;;;;;;;9.37;3.53;;;;;;;7.42;100.00;98719.75;4176048;28;20234;-69
2022/09/19 00:41:08;;;;;;;7.90;3.57;;;;;;;7.41;100.00;98718.09;4186883;28;20248;-69
2022/09/19 00:43:55;;;;;;;9.27;3.80;;;;;;;7.40;100.00;98713.81;4191313;28;20381;-70
2022/09/19 00:46:23;;;;;;;11.97;3.70;;;;;;;7.33;100.00;98718.13;4205111;28;20235;-71
2022/09/19 00:49:10;;;;;;;10.63;3.27;;;;;;;7.38;100.00;98715.81;4182404;28;20303;-69
2022/09/19 00:51:46;;;;;;;10.93;3.60;;;;;;;7.31;100.00;98720.94;4170585;28;20302;-69
2022/09/19 00:54:20;;;;;;;14.87;4.17;;;;;;;7.33;100.00;98724.25;4173048;28;20634;-69
2022/09/19 00:56:51;;;;;;;9.70;3.80;;;;;;;7.33;100.00;98721.59;4177975;28;20623;-71
2022/09/19 00:59:19;;;;;;;11.50;3.80;;;;;;;7.40;100.00;98719.94;4167478;28;21152;-67
2022/09/19 01:01:46;;;;;;;9.33;3.20;;;;;;;7.37;100.00;98719.44;4177790;28;25323;-69
2022/09/19 01:04:18;;;;;;;13.87;3.60;;;;;;;7.35;100.00;98713.47;4171191;28;20686;-69
2022/09/19 01:07:00;;;;;;;12.93;3.40;;;;;;;7.38;100.00;98710.50;4182050;28;20257;-68
2022/09/19 01:09:43;;;;;;;11.50;4.10;;;;;;;7.35;100.00;98710.81;4181918;28;21906;-69
2022/09/19 01:12:27;;;;;;;9.97;3.97;;;;;;;7.22;100.00;98716.63;4182246;28;20285;-69
2022/09/19 01:15:28;;;;;;;11.53;3.80;;;;;;;7.26;100.00;98715.31;4186177;28;21152;-70
2022/09/19 01:17:57;;;;;;;12.20;4.00;;;;;;;7.32;100.00;98711.16;4175078;28;22613;-69
2022/09/19 01:20:37;;;;;;;11.60;4.13;;;;;;;7.24;100.00;98708.53;4168851;28;20234;-70
2022/09/19 01:23:41;;;;;;;9.43;4.00;;;;;;;7.26;100.00;98714.47;4170159;28;20325;-69
2022/09/19 01:26:37;;;;;;;11.57;3.80;;;;;;;7.18;100.00;98713.47;4185873;28;20326;-69
2022/09/19 01:29:44;;;;;;;10.30;4.50;;;;;;;7.09;100.00;98711.81;4172652;28;20305;-71
2022/09/19 01:32:15;;;;;;;10.67;4.57;;;;;;;7.14;100.00;98712.19;4167077;28;21386;-69
2022/09/19 01:34:46;;;;;;;15.33;4.00;;;;;;;7.07;100.00;98716.47;4179611;28;21711;-69
2022/09/19 01:37:34;;;;;;;17.50;4.50;;;;;;;7.07;100.00;98719.13;4169601;28;20237;-69
2022/09/19 01:40:03;;;;;;;11.57;4.80;;;;;;;6.97;100.00;98721.91;4163270;28;21285;-69
2022/09/19 01:42:30;;;;;;;12.83;4.23;;;;;;;6.95;100.00;98723.06;4177683;28;20252;-69
2022/09/19 01:44:56;;;;;;;12.77;4.77;;;;;;;6.91;100.00;98724.41;4179696;28;20233;-70
2022/09/19 01:47:39;;;;;;;10.20;4.37;;;;;;;6.90;100.00;98730.66;4186073;28;20232;-69
2022/09/19 01:50:31;;;;;;;10.13;4.30;;;;;;;6.74;100.00;98729.66;4171412;28;20280;-68
2022/09/19 01:53:12;;;;;;;13.73;4.83;;;;;;;6.71;100.00;98724.69;4156795;28;20407;-70
2022/09/19 01:56:05;;;;;;;14.87;4.23;;;;;;;6.68;100.00;98726.84;4189846;28;20237;-69
2022/09/19 01:58:48;;;;;;;13.50;4.90;;;;;;;6.60;100.00;98729.44;4171174;28;20317;-69
2022/09/19 02:01:33;;;;;;;8.43;4.27;;;;;;;6.56;100.00;98728.97;4164479;28;20342;-70
2022/09/19 02:04:14;;;;;;;15.57;4.67;;;;;;;6.48;100.00;98728.91;4177325;28;20240;-68
2022/09/19 02:06:58;;;;;;;12.63;4.60;;;;;;;6.51;100.00;98725.97;4192197;28;20235;-68
2022/09/19 02:09:34;;;;;;;15.23;4.73;;;;;;;6.51;100.00;98725.97;4167645;28;22092;-69
2022/09/19 02:12:01;;;;;;;13.80;4.70;;;;;;;6.48;100.00;98742.94;4184131;28;20246;-69
2022/09/19 02:14:31;;;;;;;14.77;5.23;;;;;;;6.39;100.00;98735.16;4163887;28;20240;-70
2022/09/19 02:17:03;;;;;;;9.77;4.33;;;;;;;6.44;100.00;98744.28;4169785;28;20231;-69
2022/09/19 02:19:43;;;;;;;12.23;5.73;;;;;;;6.38;100.00;98734.34;4172093;28;21965;-69
2022/09/19 02:22:32;;;;;;;13.23;5.03;;;;;;;6.26;100.00;98744.38;4181566;28;20598;-69
2022/09/19 02:25:02;;;;;;;16.33;5.30;;;;;;;6.22;100.00;98735.09;4197180;28;20723;-71
2022/09/19 02:27:34;;;;;;;18.90;5.80;;;;;;;6.15;100.00;98736.72;4175791;28;20234;-70
2022/09/19 02:30:05;;;;;;;18.93;5.90;;;;;;;6.21;100.00;98737.94;4180657;28;21110;-70
2022/09/19 02:32:33;;;;;;;17.57;5.67;;;;;;;6.10;100.00;98745.13;4181468;28;20243;-72
2022/09/19 02:34:59;;;;;;;16.97;5.67;;;;;;;6.05;100.00;98741.31;4185149;28;20536;-69
2022/09/19 02:37:30;;;;;;;13.27;5.03;;;;;;;5.97;100.00;98733.34;4184947;28;21487;-70
2022/09/19 02:40:08;;;;;;;14.77;6.13;;;;;;;5.95;100.00;98737.94;4179802;28;20238;-69
2022/09/19 02:42:57;;;;;;;19.30;6.13;;;;;;;5.89;100.00;98750.75;4180507;28;20238;-69
2022/09/19 02:45:31;;;;;;;15.40;6.00;;;;;;;5.88;100.00;98743.84;4194464;28;20578;-69
2022/09/19 02:48:20;;;;;;;18.73;5.80;;;;;;;5.89;100.00;98745.47;4168378;28;22252;-68
2022/09/19 02:51:11;;;;;;;16.17;6.03;;;;;;;6.01;100.00;98750.53;4182641;28;20644;-69
2022/09/19 02:53:42;;;;;;;18.60;6.00;;;;;;;5.96;100.00;98745.72;4196927;28;21530;-67
2022/09/19 02:56:14;;;;;;;16.60;5.83;;;;;;;5.97;100.00;98751.81;4184404;28;20253;-67
2022/09/19 02:58:50;;;;;;;15.37;6.40;;;;;;;6.02;100.00;98749.56;4166460;28;20702;-69
2022/09/19 03:01:22;;;;;;;14.30;6.53;;;;;;;6.06;100.00;98749.09;4179037;28;22751;-70
2022/09/19 03:06:47;;;;;;;14.83;5.87;;;;;;;6.06;100.00;98745.59;4199342;28;21432;-69
2022/09/19 03:09:16;;;;;;;14.60;5.63;;;;;;;6.02;100.00;98744.28;4183697;28;20229;-69
2022/09/19 03:11:49;;;;;;;15.30;6.40;;;;;;;6.05;100.00;98738.69;4187379;28;22302;-68
2022/09/19 03:14:16;;;;;;;17.73;6.30;;;;;;;5.99;100.00;98742.75;4178694;28;23597;-68
2022/09/19 03:16:47;;;;;;;15.37;5.73;;;;;;;6.09;100.00;98745.31;4179303;28;22716;-69
2022/09/19 03:19:13;;;;;;;17.60;6.40;;;;;;;6.04;100.00;98747.56;4174361;28;20244;-69
2022/09/19 03:21:41;;;;;;;10.27;6.00;;;;;;;6.10;100.00;98749.59;4175361;28;20240;-67
2022/09/19 03:24:08;;;;;;;14.80;6.03;;;;;;;6.10;100.00;98744.31;4182810;28;21180;-70
2022/09/19 03:26:36;;;;;;;13.67;5.53;;;;;;;6.12;100.00;98755.53;4185211;28;20320;-67
2022/09/19 03:29:05;;;;;;;20.37;6.50;;;;;;;6.11;100.00;98756.50;4185872;28;20240;-70
2022/09/19 03:31:32;;;;;;;11.03;5.90;;;;;;;6.16;100.00;98762.16;4185769;28;20597;-69
2022/09/19 03:33:58;;;;;;;14.60;6.30;;;;;;;6.24;100.00;98759.56;4187373;28;20553;-68
2022/09/19 03:36:26;;;;;;;17.37;5.87;;;;;;;6.24;100.00;98759.56;4183958;28;23173;-70
2022/09/19 03:38:52;;;;;;;21.40;6.50;;;;;;;6.13;100.00;98757.19;4174449;28;21230;-69
2022/09/19 03:41:22;;;;;;;19.00;6.13;;;;;;;6.19;100.00;98764.50;4177888;28;20429;-69
2022/09/19 03:43:49;;;;;;;15.93;6.70;;;;;;;6.21;100.00;98769.63;4187610;28;20233;-69
2022/09/19 03:46:19;;;;;;;14.10;6.07;;;;;;;6.20;100.00;98767.94;4195487;28;20238;-68
2022/09/19 03:48:46;;;;;;;11.13;5.53;;;;;;;6.32;100.00;98764.88;4180926;28;21255;-69
2022/09/19 03:51:14;;;;;;;15.53;5.37;;;;;;;6.18;100.00;98769.91;4187514;28;21546;-71
2022/09/19 03:53:42;;;;;;;11.53;5.87;;;;;;;6.22;100.00;98774.72;4187617;28;21986;-70
2022/09/19 03:56:10;;;;;;;15.10;6.63;;;;;;;6.29;100.00;98767.00;4184110;28;20264;-69
2022/09/19 03:58:40;;;;;;;13.30;6.83;;;;;;;6.26;100.00;98770.78;4193327;28;20245;-70
2022/09/19 04:01:07;;;;;;;14.03;6.70;;;;;;;6.21;100.00;98770.44;4190832;28;23012;-70
2022/09/19 04:03:35;;;;;;;16.23;7.30;;;;;;;6.14;100.00;98772.06;4189889;28;20304;-70
2022/09/19 04:06:03;;;;;;;19.33;7.73;;;;;;;6.14;100.00;98772.06;4189040;28;20375;-69
2022/09/19 04:08:29;;;;;;;14.90;7.10;;;;;;;6.08;100.00;98775.31;4180642;28;20239;-69
2022/09/19 04:10:56;;;;;;;22.50;7.60;;;;;;;6.06;100.00;98777.28;4190209;28;20414;-69
2022/09/19 04:13:23;;;;;;;15.73;6.80;;;;;;;6.15;100.00;98778.97;4193315;28;20245;-70
2022/09/19 04:15:50;;;;;;;18.70;7.97;;;;;;;6.19;100.00;98785.63;4188754;28;20252;-68
2022/09/19 04:18:18;;;;;;;21.73;7.90;;;;;;;6.13;100.00;98778.31;4189166;28;20233;-70
2022/09/19 04:20:46;;;;;;;19.10;9.07;;;;;;;6.07;100.00;98785.06;4187589;28;20956;-69
2022/09/19 04:23:13;;;;;;;20.33;8.50;;;;;;;6.13;100.00;98786.22;4175126;28;20282;-69
2022/09/19 04:25:40;;;;;;;18.93;8.07;;;;;;;6.12;100.00;98792.50;4182692;28;21171;-69
2022/09/19 04:28:09;;;;;;;17.73;8.50;;;;;;;6.15;100.00;98786.09;4185701;28;20375;-68
2022/09/19 04:30:36;;;;;;;14.77;7.83;;;;;;;6.19;100.00;98788.25;4176676;28;20393;-66
2022/09/19 04:33:04;;;;;;;15.67;8.57;;;;;;;6.15;100.00;98792.19;4169414;28;25490;-70
2022/09/19 04:35:35;;;;;;;19.33;8.97;;;;;;;6.11;100.00;98796.97;4170163;28;20418;-68
2022/09/19 04:38:03;;;;;;;17.60;9.13;;;;;;;6.14;100.00;98801.13;4173860;28;20234;-70
2022/09/19 04:40:29;;;;;;;19.23;9.03;;;;;;;6.13;100.00;98799.44;4169880;28;20615;-70
2022/09/19 04:42:57;;;;;;;15.50;8.87;;;;;;;6.11;100.00;98804.03;4177391;28;20595;-69
2022/09/19 04:45:24;;;;;;;20.20;9.83;;;;;;;6.18;100.00;98813.03;4173065;28;20305;-69
2022/09/19 04:47:50;;;;;;;19.33;8.93;;;;;;;6.18;100.00;98806.88;4181791;28;20418;-69
2022/09/19 04:50:18;;;;;;;20.03;9.47;;;;;;;6.16;100.00;98803.56;4187716;28;20860;-70
2022/09/19 04:52:45;;;;;;;17.30;9.07;;;;;;;6.16;100.00;98808.84;4210885;28;22087;-73
2022/09/19 04:55:11;;;;;;;20.57;9.90;;;;;;;6.21;100.00;98812.69;4220889;28;20415;-69
2022/09/19 04:57:38;;;;;;;16.07;9.43;;;;;;;6.24;100.00;98812.38;4220698;28;20602;-70
2022/09/19 05:00:05;;;;;;;19.97;9.67;;;;;;;6.19;100.00;98812.03;4193393;28;20300;-69
2022/09/19 05:02:32;;;;;;;20.43;9.63;;;;;;;6.25;100.00;98819.34;4177798;28;21764;-71
2022/09/19 05:04:59;;;;;;;21.83;10.43;;;;;;;6.26;100.00;98818.34;4216242;28;20790;-70
2022/09/19 05:07:33;;;;;;;19.60;8.90;;;;;;;6.21;100.00;98818.00;4178113;28;20313;-70
2022/09/19 05:10:01;;;;;;;14.47;9.27;;;;;;;6.22;100.00;98819.63;4183312;28;20229;-70
2022/09/19 05:12:28;;;;;;;17.43;10.40;;;;;;;6.22;100.00;98814.34;4189906;28;20241;-72
2022/09/19 05:14:55;;;;;;;23.10;10.97;;;;;;;6.20;100.00;98826.88;4194294;28;20326;-71
2022/09/19 05:17:23;;;;;;;21.57;10.60;;;;;;;6.21;100.00;98825.09;4188430;28;20236;-71
2022/09/19 05:19:49;;;;;;;22.90;11.77;;;;;;;6.22;100.00;98824.09;4176445;28;20345;-72
2022/09/19 05:22:16;;;;;;;26.80;12.90;;;;;;;6.09;100.00;98829.81;4175791;28;20248;-76
2022/09/19 05:24:43;;;;;;;22.13;12.53;;;;;;;6.12;100.00;98832.13;4181670;28;20242;-75
2022/09/19 05:27:11;;;;;;;27.20;13.73;;;;;;;6.10;100.00;98831.44;4185346;28;20225;-72
2022/09/19 05:29:39;;;;;;;23.33;12.53;;;;;;;6.09;100.00;98830.63;4175618;28;20302;-75
2022/09/19 05:32:06;;;;;;;25.50;13.37;;;;;;;6.12;100.00;98837.41;4179357;28;20317;-69
2022/09/19 05:34:32;;;;;;;29.13;14.03;;;;;;;6.11;100.00;98839.22;4186823;28;23359;-72
2022/09/19 05:36:59;;;;;;;26.93;14.30;;;;;;;6.09;100.00;98841.19;4186398;28;20263;-76
2022/09/19 05:39:25;;;;;;;24.77;13.57;;;;;;;6.16;100.00;98844.03;4164659;28;20573;-71
2022/09/19 05:41:52;;;;;;;25.07;13.87;;;;;;;6.20;100.00;98847.19;4179936;28;20240;-69
2022/09/19 05:44:18;;;;;;;25.50;14.10;;;;;;;6.21;100.00;98849.69;4188955;28;20552;-71
2022/09/19 05:46:45;;;;;;;28.53;14.97;;;;;;;6.27;100.00;98851.69;4190391;28;20242;-71
2022/09/19 05:49:12;;;;;;;22.37;14.23;;;;;;;6.28;100.00;98853.34;4174827;28;20249;-69
2022/09/19 05:51:38;;;;;;;35.00;14.87;;;;;;;6.27;100.00;98853.50;4183622;28;20335;-72
2022/09/19 05:54:05;;;;;;;32.63;14.43;;;;;;;6.29;100.00;98854.19;4195915;28;22910;-65
2022/09/19 05:56:32;;;;;;;24.30;13.83;;;;;;;6.37;100.00;98853.38;4184525;28;20362;-70
2022/09/19 05:58:58;;;;;;;26.60;13.77;;;;;;;6.41;100.00;98860.84;4188898;28;20297;-70
2022/09/19 06:01:25;;;;;;;26.27;14.10;;;;;;;6.38;100.00;98868.25;4169930;28;20305;-69
2022/09/19 06:03:51;;;;;;;24.37;14.80;;;;;;;6.35;100.00;98869.41;4183098;28;20324;-70
2022/09/19 06:06:21;;;;;;;26.63;15.23;;;;;;;6.45;100.00;98870.13;4180224;28;20229;-71
2022/09/19 06:08:55;;;;;;;27.70;15.03;;;;;;;6.44;100.00;98867.63;4192278;28;20407;-72
2022/09/19 06:11:22;;;;;;;26.13;14.43;;;;;;;6.51;100.00;98871.31;4178889;28;20256;-71
2022/09/19 06:16:35;;;;;;;33.40;16.20;;;;;;;6.54;100.00;98879.75;4188432;28;20250;-66
2022/09/19 06:19:02;;;;;;;24.30;15.93;;;;;;;6.66;100.00;98885.59;4177610;28;20243;-73
2022/09/19 06:21:31;;;;;;;27.03;14.80;;;;;;;6.64;100.00;98887.53;4167730;28;20250;-72
2022/09/19 06:23:57;;;;;;;27.17;16.07;;;;;;;6.70;100.00;98892.22;4186172;28;20253;-72
2022/09/19 06:26:24;;;;;;;26.93;16.30;;;;;;;6.69;100.00;98895.81;4181824;28;20470;-68
2022/09/19 06:28:51;;;;;;;25.57;16.83;;;;;;;6.67;100.00;98903.13;4170433;28;20506;-70
2022/09/19 06:31:18;;;;;;;31.30;18.37;;;;;;;6.69;100.00;98903.75;4187724;28;20524;-75
2022/09/19 06:33:44;;;;;;;31.13;18.87;;;;;;;6.75;100.00;98904.97;4183468;28;20237;-71
2022/09/19 06:36:11;;;;;;;26.33;16.87;;;;;;;6.76;100.00;98901.31;4182031;28;20237;-70
2022/09/19 06:38:40;;;;;;;32.07;17.27;;;;;;;6.74;100.00;98906.78;4166388;28;20234;-71
2022/09/19 06:41:08;;;;;;;33.90;17.33;;;;;;;6.83;100.00;98914.72;4181963;28;21231;-70
2022/09/19 06:43:34;;;;;;;30.87;16.77;;;;;;;6.81;100.00;98900.84;4184805;28;21220;-70
2022/09/19 06:46:01;;;;;;;28.00;17.50;;;;;;;6.77;100.00;98908.28;4175223;28;20313;-70
2022/09/19 06:48:28;;;;;;;28.37;16.87;;;;;;;6.73;100.00;98909.56;4177564;28;21642;-70
2022/09/19 06:50:54;;;;;;;26.97;16.77;;;;;;;6.81;100.00;98914.88;4186454;28;20256;-70
2022/09/19 06:53:20;;;;;;;32.83;17.37;;;;;;;6.79;100.00;98921.31;4186994;28;20665;-72
2022/09/19 06:55:47;;;;;;;35.93;16.97;;;;;;;6.79;100.00;98921.31;4173955;28;20237;-73
2022/09/19 06:58:15;;;;;;;30.33;16.47;;;;;;;6.79;100.00;98932.75;4176244;28;20363;-71
2022/09/19 07:00:44;;;;;;;27.17;16.13;;;;;;;6.86;100.00;98930.28;4195575;28;20253;-71
2022/09/19 07:03:15;;;;;;;33.57;17.97;;;;;;;6.79;100.00;98929.25;4182315;28;21101;-77
2022/09/19 07:05:42;;;;;;;34.07;18.37;;;;;;;6.84;100.00;98929.63;4178657;28;20252;-75
2022/09/19 07:08:10;;;;;;;32.60;17.63;;;;;;;6.91;100.00;98943.88;4173702;28;21260;-74
2022/09/19 07:10:36;;;;;;;31.77;17.27;;;;;;;6.89;100.00;98928.16;4178091;28;20876;-71
2022/09/19 07:13:04;;;;;;;28.27;16.60;;;;;;;6.88;100.00;98937.09;4178863;28;20623;-71
2022/09/19 07:15:33;;;;;;;29.10;16.80;;;;;;;6.91;100.00;98944.69;4179052;28;20274;-73
2022/09/19 07:17:59;;;;;;;33.90;18.13;;;;;;;7.00;100.00;98940.28;4175836;28;20230;-71
2022/09/19 07:20:27;;;;;;;32.00;16.93;;;;;;;7.04;100.00;98946.88;4175385;28;20238;-71
2022/09/19 07:23:01;;;;;;;26.57;16.20;;;;;;;7.09;100.00;98949.88;4169056;28;21933;-73
2022/09/19 07:25:31;;;;;;;32.73;17.43;;;;;;;7.12;100.00;98954.88;4180944;28;20233;-76
2022/09/19 07:28:00;;;;;;;31.70;17.63;;;;;;;7.08;100.00;98964.09;4186535;28;20246;-70
2022/09/19 07:30:31;;;;;;;27.97;17.13;;;;;;;7.07;100.00;98961.59;4175665;28;20301;-70
2022/09/19 07:32:59;;;;;;;34.40;17.73;;;;;;;7.05;100.00;98964.44;4165230;28;20226;-72
2022/09/19 07:35:27;;;;;;;28.33;17.10;;;;;;;7.16;100.00;98971.22;4173040;28;20411;-70
2022/09/19 07:38:00;;;;;;;32.33;17.50;;;;;;;7.06;100.00;98966.06;4169772;28;20233;-71
2022/09/19 07:40:26;;;;;;;31.30;18.20;;;;;;;7.09;100.00;98976.31;4186346;28;23001;-69
2022/09/19 07:42:58;;;;;;;32.87;19.57;;;;;;;7.10;100.00;98969.25;4175818;28;21597;-69
2022/09/19 07:45:25;;;;;;;37.07;20.07;;;;;;;7.10;100.00;98982.47;4174470;28;20240;-68
2022/09/19 07:47:51;;;;;;;32.87;18.13;;;;;;;7.02;100.00;98975.31;4169937;28;20855;-69
2022/09/19 07:50:18;;;;;;;32.33;18.33;;;;;;;6.97;100.00;98983.72;4181719;28;20249;-69
2022/09/19 07:52:48;;;;;;;33.07;19.20;;;;;;;6.94;100.00;98983.22;4184480;28;20234;-70
2022/09/19 07:55:14;;;;;;;34.17;19.50;;;;;;;6.94;100.00;98983.22;4175299;28;20660;-69
2022/09/19 07:57:51;;;;;;;35.27;19.17;;;;;;;6.85;100.00;98995.56;4183894;28;20326;-70
2022/09/19 08:00:18;;;;;;;32.83;18.67;;;;;;;6.81;100.00;98998.66;4178320;28;20496;-72
2022/09/19 08:02:53;;;;;;;33.90;18.33;;;;;;;6.77;100.00;98998.16;4176764;28;20312;-72
2022/09/19 08:05:20;;;;;;;32.23;19.07;;;;;;;6.82;100.00;98995.88;4179760;28;27207;-72
2022/09/19 08:07:47;;;;;;;32.73;19.63;;;;;;;6.83;100.00;99001.97;4228469;28;20244;-73
2022/09/19 08:10:15;;;;;;;34.07;20.63;;;;;;;6.86;100.00;99009.59;4217290;28;20242;-71
2022/09/19 08:12:45;;;;;;;35.87;20.43;;;;;;;6.86;100.00;99001.66;4181688;28;20285;-72
2022/09/19 08:15:18;;;;;;;36.40;19.87;;;;;;;6.95;100.00;99003.38;4171817;28;20244;-73
2022/09/19 08:17:58;;;;;;;30.80;19.63;;;;;;;6.97;100.00;99004.88;4189200;28;23055;-72
2022/09/19 08:20:26;;;;;;;34.20;19.07;;;;;;;7.05;100.00;99011.22;4188456;28;22995;-73
2022/09/19 08:23:13;;;;;;;33.07;18.27;;;;;;;7.03;100.00;99016.66;4178193;28;20244;-71
2022/09/19 08:25:46;;;;;;;29.77;16.63;;;;;;;7.10;100.00;99014.22;4180619;28;20420;-72
2022/09/19 08:28:13;;;;;;;28.57;16.67;;;;;;;7.09;100.00;99018.66;4186303;28;20258;-72
2022/09/19 08:30:42;;;;;;;27.73;15.47;;;;;;;7.10;100.00;99022.16;4186547;28;26878;-72
2022/09/19 08:33:09;;;;;;;24.73;15.40;;;;;;;7.21;100.00;99026.31;4169872;28;20655;-76
2022/09/19 08:35:39;;;;;;;31.70;16.23;;;;;;;7.17;100.00;99023.19;4188525;28;20238;-70
2022/09/19 08:38:07;;;;;;;28.57;15.57;;;;;;;7.26;100.00;99018.72;4196321;28;22092;-74
2022/09/19 08:40:39;;;;;;;27.50;16.60;;;;;;;7.26;100.00;99029.31;4185095;28;20234;-73
2022/09/19 08:43:21;;;;;;;31.53;16.47;;;;;;;7.33;100.00;99036.47;4180887;28;20639;-75
2022/09/19 08:46:12;;;;;;;30.60;16.23;;;;;;;7.28;100.00;99037.91;4187005;28;20324;-72
2022/09/19 08:48:53;;;;;;;27.43;16.10;;;;;;;7.19;100.00;99040.53;4205817;28;20248;-73
2022/09/19 08:51:33;;;;;;;26.83;16.13;;;;;;;7.19;100.00;99043.19;4176354;28;20240;-73
2022/09/19 08:54:26;;;;;;;27.73;15.40;;;;;;;7.19;100.00;99048.47;4164324;28;21637;-72
2022/09/19 08:56:52;;;;;;;31.77;16.43;;;;;;;7.18;100.00;99049.44;4189938;28;20770;-72
2022/09/19 08:59:23;;;;;;;28.93;16.63;;;;;;;7.15;100.00;99041.84;4183159;28;24974;-69
2022/09/19 09:01:53;;;;;;;31.90;15.90;;;;;;;7.24;100.00;99052.47;4166925;28;20238;-71
2022/09/19 09:04:39;;;;;;;25.77;14.83;;;;;;;7.27;100.00;99052.16;4188698;28;20252;-72
2022/09/19 09:07:14;;;;;;;25.80;15.53;;;;;;;7.37;100.00;99055.50;4185281;28;23079;-69
2022/09/19 09:10:03;;;;;;;26.50;15.67;;;;;;;7.42;100.00;99047.91;4181169;28;20485;-72
2022/09/19 09:12:40;;;;;;;21.40;13.57;;;;;;;7.40;100.00;99053.38;4175827;28;21654;-73
2022/09/19 09:15:20;;;;;;;22.20;13.43;;;;;;;7.46;100.00;99062.50;4187879;28;22207;-68
2022/09/19 09:18:28;;;;;;;25.50;14.23;;;;;;;7.48;100.00;99059.69;4176543;28;20313;-72
2022/09/19 09:21:03;;;;;;;20.60;13.47;;;;;;;7.49;100.00;99048.09;4191534;28;20242;-72
2022/09/19 09:23:34;;;;;;;20.07;13.03;;;;;;;7.43;100.00;99059.34;4176488;28;20505;-72
2022/09/19 09:26:06;;;;;;;20.37;13.03;;;;;;;7.52;100.00;99061.03;4181528;28;20245;-70
2022/09/19 09:28:42;;;;;;;20.80;13.10;;;;;;;7.53;100.00;99055.56;4188498;28;20345;-73
2022/09/19 09:31:24;;;;;;;19.13;12.70;;;;;;;7.61;100.00;99063.56;4196846;28;20243;-67
2022/09/19 09:33:57;;;;;;;21.93;12.30;;;;;;;7.67;100.00;99063.91;4190101;28;20244;-70
2022/09/19 09:36:31;;;;;;;20.30;13.47;;;;;;;7.78;100.00;99066.25;4188745;28;20301;-73
2022/09/19 09:39:08;;;;;;;19.37;12.47;;;;;;;7.78;100.00;99075.03;4184227;28;23626;-72
2022/09/19 09:41:50;;;;;;;18.17;11.57;;;;;;;7.81;100.00;99076.53;4190408;28;20316;-72
2022/09/19 09:44:20;;;;;;;20.40;11.00;;;;;;;7.80;100.00;99069.59;4178672;28;20467;-72
2022/09/19 09:46:50;;;;;;;17.47;11.37;;;;;;;7.83;100.00;99071.91;4197014;28;20523;-70
2022/09/19 09:49:17;;;;;;;20.23;12.07;;;;;;;7.81;100.00;99071.22;4173255;28;20240;-70
2022/09/19 09:52:08;;;;;;;20.93;11.03;;;;;;;7.84;100.00;99084.13;4209338;28;22806;-70
2022/09/19 09:58:12;;;;;;;15.53;9.60;;;;;;;7.81;100.00;99084.47;4212651;28;22697;-71
2022/09/19 10:03:42;;;;;;;15.87;10.03;;;;;;;7.90;100.00;99091.44;4186691;28;20241;-72
2022/09/19 10:06:15;;;;;;;14.57;10.00;;;;;;;7.96;100.00;99090.81;4192598;28;26374;-70
2022/09/19 10:09:01;;;;;;;17.13;10.07;;;;;;;7.87;100.00;99096.25;4176033;28;22954;-69
2022/09/19 10:11:44;;;;;;;13.57;9.20;;;;;;;7.89;100.00;99089.81;4204221;28;21734;-70
2022/09/19 10:14:31;;;;;;;19.27;9.40;;;;;;;7.97;100.00;99097.75;4191378;28;20248;-68
2022/09/19 10:17:01;;;;;;;14.03;9.53;;;;;;;7.91;100.00;99093.09;4184497;28;23443;-69
2022/09/19 10:19:35;;;;;;;17.53;9.90;;;;;;;7.97;100.00;99102.22;4180109;28;20260;-70
2022/09/19 10:22:02;;;;;;;18.17;10.53;;;;;;;7.91;100.00;99101.03;4169608;28;21964;-69
2022/09/19 10:24:53;;;;;;;15.97;10.20;;;;;;;7.96;100.00;99104.06;4177027;28;20439;-70
2022/09/19 10:27:33;;;;;;;17.73;10.30;;;;;;;7.96;100.00;99103.22;4157618;28;20244;-71
2022/09/19 10:30:16;;;;;;;17.43;9.47;;;;;;;7.98;100.00;99107.38;4163788;28;22942;-74
2022/09/19 10:32:44;;;;;;;14.77;8.90;;;;;;;7.99;100.00;99110.84;4161724;28;20312;-74
2022/09/19 10:35:27;;;;;;;15.13;8.97;;;;;;;8.01;100.00;99115.00;4170949;28;20241;-74
2022/09/19 10:38:13;;;;;;;14.87;9.03;;;;;;;8.13;100.00;99120.81;4175168;28;20364;-72
2022/09/19 10:40:59;;;;;;;14.73;8.80;;;;;;;8.18;100.00;99120.34;4178236;28;22980;-73
2022/09/19 10:43:32;;;;;;;18.27;9.73;;;;;;;8.13;100.00;99122.66;4174466;28;20776;-69
2022/09/19 10:46:06;;;;;;;14.83;8.80;;;;;;;8.17;100.00;99119.53;4159890;28;20246;-71
2022/09/19 10:48:38;;;;;;;19.73;9.80;;;;;;;8.10;100.00;99128.25;4180201;28;20232;-71
2022/09/19 10:51:08;;;;;;;14.67;9.20;;;;;;;8.14;100.00;99126.94;4186118;28;20548;-72
2022/09/19 10:53:36;;;;;;;15.80;9.27;;;;;;;8.19;100.00;99133.44;4159858;28;20235;-71
2022/09/19 10:56:07;;;;;;;16.13;9.50;;;;;;;8.22;100.00;99138.41;4174684;28;20479;-74
2022/09/19 10:58:39;;;;;;;18.07;10.43;;;;;;;8.26;100.00;99128.28;4167974;28;20313;-71
2022/09/19 11:01:08;;;;;;;16.90;9.27;;;;;;;8.28;100.00;99134.25;4179606;28;20853;-71
2022/09/19 11:03:39;;;;;;;19.43;10.87;;;;;;;8.39;100.00;99138.44;4178364;28;20248;-72
2022/09/19 11:06:13;;;;;;;19.10;10.47;;;;;;;8.48;100.00;99136.69;4164201;28;20237;-71
2022/09/19 11:08:48;;;;;;;14.87;9.13;;;;;;;8.48;100.00;99141.97;4171172;28;20317;-71
2022/09/19 11:11:47;;;;;;;19.37;8.93;;;;;;;8.42;100.00;99144.25;4176540;28;22221;-70
2022/09/19 11:14:28;;;;;;;16.50;9.67;;;;;;;8.44;100.00;99136.16;4188687;28;20638;-70
2022/09/19 11:17:33;;;;;;;14.30;8.20;;;;;;;8.41;100.00;99142.63;4174419;28;20680;-72
2022/09/19 11:20:18;;;;;;;14.43;8.13;;;;;;;8.45;100.00;99140.44;4177131;28;20316;-72
2022/09/19 11:23:16;;;;;;;18.37;8.43;;;;;;;8.54;100.00;99142.13;4184274;28;23080;-70
2022/09/19 11:26:27;;;;;;;16.10;7.50;;;;;;;8.49;100.00;99133.03;4167925;28;20699;-70
2022/09/19 11:29:13;;;;;;;12.10;6.90;;;;;;;8.53;100.00;99144.97;4177955;28;20305;-70
2022/09/19 11:32:13;;;;;;;15.53;7.47;;;;;;;8.48;100.00;99149.94;4175559;28;20567;-71
2022/09/19 11:35:27;;;;;;;13.20;6.70;;;;;;;8.56;100.00;99144.63;4179891;28;21487;-73
2022/09/19 11:38:32;;;;;;;15.17;6.10;;;;;;;8.55;100.00;99154.41;4184502;28;20779;-71
2022/09/19 11:41:25;;;;;;;12.13;6.33;;;;;;;8.52;100.00;99153.88;4215339;28;21080;-71
2022/09/19 11:44:07;;;;;;;13.70;6.47;;;;;;;8.61;100.00;99152.91;4186220;28;23029;-69
2022/09/19 11:46:49;;;;;;;10.53;5.97;;;;;;;8.61;100.00;99144.97;4180272;28;20305;-72
2022/09/19 11:49:46;;;;;;;9.97;5.60;;;;;;;8.57;100.00;99148.91;4182938;28;21553;-68
2022/09/19 11:52:35;;;;;;;10.03;5.87;;;;;;;8.53;100.00;99150.25;4176681;28;20304;-67
2022/09/19 11:55:33;;;;;;;12.40;6.20;;;;;;;8.57;100.00;99151.56;4191621;28;20429;-67
2022/09/19 11:58:26;;;;;;;12.57;6.73;;;;;;;8.55;100.00;99153.59;4189955;28;22572;-70
2022/09/19 12:01:05;;;;;;;11.67;5.83;;;;;;;8.53;100.00;99155.56;4167432;28;20240;-70
2022/09/19 12:04:01;;;;;;;10.97;5.57;;;;;;;8.56;100.00;99153.41;4170043;28;20241;-70
2022/09/19 12:06:55;;;;;;;9.80;5.73;;;;;;;8.67;100.00;99154.91;4175268;28;20238;-70